createdAt,value
2022-08-11T00:00:15.298Z,1019.95
2022-08-11T00:01:15.266Z,1019.96
2022-08-11T00:02:15.561Z,1019.95
2022-08-11T00:03:15.372Z,1019.95
2022-08-11T00:04:15.261Z,1019.94
2022-08-11T00:05:15.233Z,1019.93
2022-08-11T00:06:15.220Z,1019.93
2022-08-11T00:07:15.224Z,1019.91
2022-08-11T00:08:15.206Z,1019.90
2022-08-11T00:09:15.188Z,1019.90
2022-08-11T00:10:15.205Z,1019.90
2022-08-11T00:11:15.168Z,1019.90
2022-08-11T00:12:15.173Z,1019.91
2022-08-11T00:13:15.169Z,1019.92
2022-08-11T00:14:15.149Z,1019.93
2022-08-11T00:15:15.122Z,1019.94
2022-08-11T00:16:15.124Z,1019.94
2022-08-11T00:17:15.132Z,1019.97
2022-08-11T00:18:15.105Z,1019.98
2022-08-11T00:19:15.084Z,1019.96
2022-08-11T00:20:17.994Z,1019.96
2022-08-11T00:21:15.062Z,1019.96
2022-08-11T00:22:15.071Z,1019.97
2022-08-11T00:23:18.224Z,1019.98
2022-08-11T00:24:15.123Z,1019.98
2022-08-11T00:25:15.022Z,1019.98
2022-08-11T00:26:15.043Z,1019.97
2022-08-11T00:27:15.039Z,1019.99
2022-08-11T00:28:14.998Z,1019.98
2022-08-11T00:29:14.980Z,1019.97
2022-08-11T00:30:14.984Z,1019.96
2022-08-11T00:31:14.965Z,1019.97
2022-08-11T00:32:14.974Z,1019.95
2022-08-11T00:33:14.940Z,1019.94
2022-08-11T00:34:14.932Z,1019.93
2022-08-11T00:35:53.848Z,1019.93
2022-08-11T00:36:14.923Z,1019.92
2022-08-11T00:37:14.912Z,1019.91
2022-08-11T00:38:14.891Z,1019.92
2022-08-11T00:39:14.926Z,1019.90
2022-08-11T00:40:14.877Z,1019.90
2022-08-11T00:41:14.856Z,1019.90
2022-08-11T00:42:14.864Z,1019.92
2022-08-11T00:43:20.795Z,1019.92
2022-08-11T00:44:14.832Z,1019.93
2022-08-11T00:45:14.810Z,1019.93
2022-08-11T00:46:14.825Z,1019.95
2022-08-11T00:47:14.814Z,1019.95
2022-08-11T00:48:14.790Z,1019.96
2022-08-11T00:49:14.789Z,1019.98
2022-08-11T00:50:14.764Z,1019.99
2022-08-11T00:51:14.752Z,1019.99
2022-08-11T00:52:14.759Z,1019.98
2022-08-11T00:53:14.747Z,1019.98
2022-08-11T00:54:14.723Z,1019.97
2022-08-11T00:55:14.728Z,1019.96
2022-08-11T00:56:14.705Z,1019.96
2022-08-11T00:57:36.903Z,1019.96
2022-08-11T00:58:14.693Z,1019.96
2022-08-11T00:59:34.068Z,1019.95
2022-08-11T01:00:14.667Z,1019.94
2022-08-11T01:01:14.683Z,1019.95
2022-08-11T01:02:14.670Z,1019.95
2022-08-11T01:03:14.651Z,1019.97
2022-08-11T01:04:14.621Z,1019.98
2022-08-11T01:05:14.609Z,1020.01
2022-08-11T01:06:14.599Z,1020.02
2022-08-11T01:07:14.610Z,1020.03
2022-08-11T01:08:14.582Z,1020.03
2022-08-11T01:09:22.499Z,1020.02
2022-08-11T01:10:14.565Z,1020.00
2022-08-11T01:11:14.549Z,1020.01
2022-08-11T01:12:14.563Z,1020.02
2022-08-11T01:13:14.519Z,1020.03
2022-08-11T01:14:14.517Z,1020.04
2022-08-11T01:15:14.507Z,1020.05
2022-08-11T01:16:14.501Z,1020.05
2022-08-11T01:17:14.496Z,1020.03
2022-08-11T01:18:14.487Z,1019.99
2022-08-11T01:19:14.460Z,1019.97
2022-08-11T01:20:47.389Z,1019.96
2022-08-11T01:21:14.453Z,1019.96
2022-08-11T01:22:14.493Z,1019.96
2022-08-11T01:23:15.781Z,1019.97
2022-08-11T01:24:14.414Z,1020.00
2022-08-11T01:25:14.442Z,1020.00
2022-08-11T01:26:14.396Z,1020.00
2022-08-11T01:27:19.117Z,1019.99
2022-08-11T01:28:14.382Z,1020.01
2022-08-11T01:29:14.368Z,1020.01
2022-08-11T01:30:14.353Z,1020.02
2022-08-11T01:31:14.335Z,1020.02
2022-08-11T01:32:14.368Z,1020.02
2022-08-11T01:33:14.315Z,1020.03
2022-08-11T01:34:14.311Z,1020.04
2022-08-11T01:35:14.310Z,1020.06
2022-08-11T01:36:14.333Z,1020.06
2022-08-11T01:37:14.270Z,1020.08
2022-08-11T01:38:14.284Z,1020.09
2022-08-11T01:39:17.947Z,1020.09
2022-08-11T01:40:14.251Z,1020.10
2022-08-11T01:41:14.233Z,1020.09
2022-08-11T01:42:14.227Z,1020.08
2022-08-11T01:43:14.241Z,1020.08
2022-08-11T01:44:14.213Z,1020.06
2022-08-11T01:45:14.226Z,1020.03
2022-08-11T01:46:14.192Z,1020.03
2022-08-11T01:47:14.170Z,1020.03
2022-08-11T01:48:14.182Z,1020.03
2022-08-11T01:50:06.828Z,1020.02
2022-08-11T01:50:14.681Z,1020.03
2022-08-11T01:51:17.241Z,1020.02
2022-08-11T01:52:14.155Z,1020.01
2022-08-11T01:53:14.131Z,1020.00
2022-08-11T01:54:14.125Z,1019.99
2022-08-11T01:55:14.088Z,1019.98
2022-08-11T01:56:14.084Z,1019.98
2022-08-11T01:57:14.067Z,1019.99
2022-08-11T01:58:14.088Z,1019.98
2022-08-11T01:59:14.108Z,1019.99
2022-08-11T02:00:14.045Z,1019.97
2022-08-11T02:01:14.074Z,1019.96
2022-08-11T02:02:17.763Z,1019.95
2022-08-11T02:03:14.032Z,1019.94
2022-08-11T02:04:14.002Z,1019.93
2022-08-11T02:05:13.984Z,1019.92
2022-08-11T02:06:13.984Z,1019.91
2022-08-11T02:07:13.964Z,1019.90
2022-08-11T02:08:14.003Z,1019.90
2022-08-11T02:09:13.945Z,1019.90
2022-08-11T02:10:13.962Z,1019.90
2022-08-11T02:11:14.118Z,1019.91
2022-08-11T02:12:13.951Z,1019.91
2022-08-11T02:13:13.900Z,1019.91
2022-08-11T02:14:13.903Z,1019.91
2022-08-11T02:15:13.935Z,1019.91
2022-08-11T02:16:13.884Z,1019.91
2022-08-11T02:17:13.875Z,1019.91
2022-08-11T02:18:13.891Z,1019.90
2022-08-11T02:19:13.840Z,1019.89
2022-08-11T02:20:13.838Z,1019.89
2022-08-11T02:21:13.855Z,1019.89
2022-08-11T02:22:13.863Z,1019.89
2022-08-11T02:23:13.817Z,1019.90
2022-08-11T02:24:13.808Z,1019.89
2022-08-11T02:25:13.776Z,1019.89
2022-08-11T02:26:13.767Z,1019.88
2022-08-11T02:27:13.775Z,1019.88
2022-08-11T02:28:13.794Z,1019.87
2022-08-11T02:29:13.733Z,1019.87
2022-08-11T02:30:13.725Z,1019.87
2022-08-11T02:32:10.980Z,1019.88
2022-08-11T02:32:31.229Z,1019.89
2022-08-11T02:33:13.704Z,1019.89
2022-08-11T02:34:13.737Z,1019.89
2022-08-11T02:35:13.671Z,1019.90
2022-08-11T02:36:13.671Z,1019.89
2022-08-11T02:37:13.674Z,1019.87
2022-08-11T02:38:13.664Z,1019.86
2022-08-11T02:39:13.668Z,1019.85
2022-08-11T02:40:13.621Z,1019.84
2022-08-11T02:41:13.609Z,1019.84
2022-08-11T02:42:35.255Z,1019.83
2022-08-11T02:43:13.597Z,1019.84
2022-08-11T02:44:13.579Z,1019.84
2022-08-11T02:45:13.564Z,1019.85
2022-08-11T02:46:18.073Z,1019.85
2022-08-11T02:47:13.578Z,1019.83
2022-08-11T02:48:13.543Z,1019.83
2022-08-11T02:49:13.525Z,1019.82
2022-08-11T02:50:13.518Z,1019.81
2022-08-11T02:51:13.573Z,1019.80
2022-08-11T02:52:13.517Z,1019.80
2022-08-11T02:53:13.490Z,1019.80
2022-08-11T02:54:13.483Z,1019.79
2022-08-11T02:55:13.461Z,1019.79
2022-08-11T02:56:13.462Z,1019.79
2022-08-11T02:57:13.482Z,1019.79
2022-08-11T02:58:13.438Z,1019.78
2022-08-11T02:59:13.418Z,1019.77
2022-08-11T03:00:13.428Z,1019.78
2022-08-11T03:01:13.469Z,1019.79
2022-08-11T03:02:13.519Z,1019.79
2022-08-11T03:03:13.384Z,1019.82
2022-08-11T03:04:13.385Z,1019.81
2022-08-11T03:05:13.359Z,1019.82
2022-08-11T03:06:13.357Z,1019.83
2022-08-11T03:07:28.669Z,1019.84
2022-08-11T03:08:13.344Z,1019.83
2022-08-11T03:09:13.322Z,1019.84
2022-08-11T03:10:13.319Z,1019.85
2022-08-11T03:11:13.300Z,1019.85
2022-08-11T03:12:13.305Z,1019.86
2022-08-11T03:13:14.194Z,1019.85
2022-08-11T03:14:13.290Z,1019.85
2022-08-11T03:15:13.261Z,1019.85
2022-08-11T03:16:13.245Z,1019.84
2022-08-11T03:17:13.247Z,1019.83
2022-08-11T03:18:13.185Z,1019.84
2022-08-11T03:19:13.167Z,1019.84
2022-08-11T03:20:13.155Z,1019.84
2022-08-11T03:21:13.142Z,1019.83
2022-08-11T03:22:13.146Z,1019.83
2022-08-11T03:23:19.904Z,1019.83
2022-08-11T03:24:13.120Z,1019.82
2022-08-11T03:25:13.254Z,1019.82
2022-08-11T03:26:13.112Z,1019.82
2022-08-11T03:27:13.089Z,1019.82
2022-08-11T03:28:13.069Z,1019.82
2022-08-11T03:29:13.054Z,1019.83
2022-08-11T03:30:13.092Z,1019.84
2022-08-11T03:31:13.038Z,1019.85
2022-08-11T03:32:13.034Z,1019.85
2022-08-11T03:33:13.044Z,1019.86
2022-08-11T03:34:13.007Z,1019.87
2022-08-11T03:35:20.085Z,1019.86
2022-08-11T03:36:13.023Z,1019.86
2022-08-11T03:37:16.425Z,1019.86
2022-08-11T03:38:12.969Z,1019.86
2022-08-11T03:39:13.001Z,1019.86
2022-08-11T03:40:12.945Z,1019.86
2022-08-11T03:41:50.458Z,1019.87
2022-08-11T03:42:12.942Z,1019.87
2022-08-11T03:43:12.920Z,1019.87
2022-08-11T03:44:12.917Z,1019.87
2022-08-11T03:45:12.894Z,1019.85
2022-08-11T03:46:12.891Z,1019.86
2022-08-11T03:47:12.893Z,1019.85
2022-08-11T03:48:12.856Z,1019.85
2022-08-11T03:49:12.886Z,1019.85
2022-08-11T03:50:12.837Z,1019.86
2022-08-11T03:51:12.833Z,1019.87
2022-08-11T03:52:12.835Z,1019.87
2022-08-11T03:53:12.823Z,1019.87
2022-08-11T03:54:18.842Z,1019.87
2022-08-11T03:55:17.315Z,1019.87
2022-08-11T03:56:15.469Z,1019.88
2022-08-11T03:57:12.795Z,1019.88
2022-08-11T03:58:12.756Z,1019.88
2022-08-11T03:59:12.757Z,1019.88
2022-08-11T04:00:12.736Z,1019.88
2022-08-11T04:01:12.761Z,1019.88
2022-08-11T04:02:12.727Z,1019.88
2022-08-11T04:03:12.706Z,1019.88
2022-08-11T04:04:12.693Z,1019.88
2022-08-11T04:05:12.685Z,1019.88
2022-08-11T04:06:12.673Z,1019.87
2022-08-11T04:07:17.494Z,1019.87
2022-08-11T04:08:12.655Z,1019.86
2022-08-11T04:09:13.331Z,1019.86
2022-08-11T04:10:12.638Z,1019.86
2022-08-11T04:11:12.626Z,1019.85
2022-08-11T04:12:14.858Z,1019.85
2022-08-11T04:13:12.609Z,1019.86
2022-08-11T04:14:12.585Z,1019.86
2022-08-11T04:15:12.583Z,1019.87
2022-08-11T04:16:13.003Z,1019.88
2022-08-11T04:17:12.579Z,1019.88
2022-08-11T04:18:12.571Z,1019.88
2022-08-11T04:19:12.565Z,1019.88
2022-08-11T04:20:12.526Z,1019.88
2022-08-11T04:21:12.520Z,1019.87
2022-08-11T04:22:12.521Z,1019.87
2022-08-11T04:23:12.503Z,1019.87
2022-08-11T04:24:39.707Z,1019.89
2022-08-11T04:25:12.511Z,1019.89
2022-08-11T04:26:16.119Z,1019.90
2022-08-11T04:27:14.424Z,1019.90
2022-08-11T04:28:28.576Z,1019.92
2022-08-11T04:29:12.438Z,1019.93
2022-08-11T04:30:12.465Z,1019.94
2022-08-11T04:31:12.421Z,1019.95
2022-08-11T04:32:12.478Z,1019.95
2022-08-11T04:33:12.395Z,1019.95
2022-08-11T04:34:12.399Z,1019.96
2022-08-11T04:35:12.387Z,1019.96
2022-08-11T04:36:12.370Z,1019.98
2022-08-11T04:37:12.384Z,1019.99
2022-08-11T04:38:12.349Z,1020.00
2022-08-11T04:39:12.403Z,1020.01
2022-08-11T04:40:12.318Z,1020.00
2022-08-11T04:41:12.324Z,1019.99
2022-08-11T04:42:12.310Z,1019.97
2022-08-11T04:43:12.332Z,1019.96
2022-08-11T04:44:12.276Z,1019.95
2022-08-11T04:45:12.273Z,1019.95
2022-08-11T04:46:12.255Z,1019.96
2022-08-11T04:47:12.275Z,1019.94
2022-08-11T04:48:12.256Z,1019.94
2022-08-11T04:49:12.247Z,1019.93
2022-08-11T04:50:12.234Z,1019.93
2022-08-11T04:51:17.222Z,1019.94
2022-08-11T04:52:12.248Z,1019.95
2022-08-11T04:53:12.191Z,1019.95
2022-08-11T04:54:12.178Z,1019.96
2022-08-11T04:55:12.174Z,1019.96
2022-08-11T04:56:12.157Z,1019.96
2022-08-11T04:57:12.187Z,1019.98
2022-08-11T04:58:12.131Z,1019.99
2022-08-11T04:59:12.153Z,1020.00
2022-08-11T05:00:12.111Z,1020.01
2022-08-11T05:01:12.190Z,1020.02
2022-08-11T05:02:17.013Z,1020.02
2022-08-11T05:03:12.106Z,1020.02
2022-08-11T05:04:12.065Z,1020.03
2022-08-11T05:05:12.073Z,1020.02
2022-08-11T05:06:12.045Z,1020.02
2022-08-11T05:07:12.062Z,1020.02
2022-08-11T05:08:12.027Z,1020.02
2022-08-11T05:09:12.017Z,1020.03
2022-08-11T05:10:12.006Z,1020.04
2022-08-11T05:11:12.013Z,1020.03
2022-08-11T05:12:12.010Z,1020.03
2022-08-11T05:13:11.976Z,1020.03
2022-08-11T05:14:11.986Z,1020.03
2022-08-11T05:15:11.974Z,1020.04
2022-08-11T05:16:11.945Z,1020.04
2022-08-11T05:17:11.960Z,1020.04
2022-08-11T05:18:11.931Z,1020.04
2022-08-11T05:19:11.923Z,1020.05
2022-08-11T05:20:11.945Z,1020.05
2022-08-11T05:21:11.920Z,1020.06
2022-08-11T05:22:11.905Z,1020.06
2022-08-11T05:23:11.905Z,1020.07
2022-08-11T05:24:11.874Z,1020.09
2022-08-11T05:25:11.858Z,1020.09
2022-08-11T05:26:46.736Z,1020.09
2022-08-11T05:27:13.970Z,1020.10
2022-08-11T05:28:11.837Z,1020.10
2022-08-11T05:29:20.248Z,1020.10
2022-08-11T05:30:11.798Z,1020.10
2022-08-11T05:31:11.796Z,1020.10
2022-08-11T05:32:11.932Z,1020.10
2022-08-11T05:33:11.773Z,1020.12
2022-08-11T05:34:11.773Z,1020.12
2022-08-11T05:36:00.919Z,1020.13
2022-08-11T05:36:11.743Z,1020.13
2022-08-11T05:37:26.155Z,1020.13
2022-08-11T05:38:11.724Z,1020.14
2022-08-11T05:39:11.796Z,1020.13
2022-08-11T05:40:11.818Z,1020.13
2022-08-11T05:41:11.703Z,1020.14
2022-08-11T05:42:11.694Z,1020.14
2022-08-11T05:43:11.675Z,1020.15
2022-08-11T05:44:20.358Z,1020.15
2022-08-11T05:45:15.440Z,1020.14
2022-08-11T05:46:13.265Z,1020.15
2022-08-11T05:47:11.651Z,1020.15
2022-08-11T05:48:11.640Z,1020.17
2022-08-11T05:49:11.610Z,1020.17
2022-08-11T05:50:13.686Z,1020.18
2022-08-11T05:51:11.783Z,1020.18
2022-08-11T05:52:16.343Z,1020.17
2022-08-11T05:53:12.107Z,1020.18
2022-08-11T05:54:28.169Z,1020.18
2022-08-11T05:55:11.549Z,1020.17
2022-08-11T05:56:11.568Z,1020.19
2022-08-11T05:57:43.877Z,1020.20
2022-08-11T05:58:11.541Z,1020.20
2022-08-11T05:59:11.521Z,1020.20
2022-08-11T06:00:11.522Z,1020.20
2022-08-11T06:01:11.555Z,1020.21
2022-08-11T06:02:11.507Z,1020.22
2022-08-11T06:03:11.464Z,1020.22
2022-08-11T06:04:11.443Z,1020.23
2022-08-11T06:05:11.443Z,1020.24
2022-08-11T06:06:11.424Z,1020.24
2022-08-11T06:07:11.465Z,1020.24
2022-08-11T06:08:11.414Z,1020.25
2022-08-11T06:09:11.405Z,1020.25
2022-08-11T06:10:11.385Z,1020.25
2022-08-11T06:11:11.468Z,1020.25
2022-08-11T06:12:11.459Z,1020.25
2022-08-11T06:13:11.376Z,1020.25
2022-08-11T06:14:11.438Z,1020.27
2022-08-11T06:15:11.344Z,1020.27
2022-08-11T06:16:11.323Z,1020.29
2022-08-11T06:17:11.341Z,1020.30
2022-08-11T06:18:11.304Z,1020.31
2022-08-11T06:19:11.295Z,1020.33
2022-08-11T06:20:11.326Z,1020.33
2022-08-11T06:21:11.326Z,1020.33
2022-08-11T06:22:11.259Z,1020.34
2022-08-11T06:23:11.322Z,1020.34
2022-08-11T06:24:11.286Z,1020.34
2022-08-11T06:25:11.233Z,1020.35
2022-08-11T06:26:11.230Z,1020.35
2022-08-11T06:27:13.069Z,1020.35
2022-08-11T06:28:11.194Z,1020.36
2022-08-11T06:29:11.193Z,1020.35
2022-08-11T06:30:11.187Z,1020.35
2022-08-11T06:31:11.184Z,1020.34
2022-08-11T06:32:11.157Z,1020.33
2022-08-11T06:33:11.157Z,1020.33
2022-08-11T06:34:11.145Z,1020.33
2022-08-11T06:35:11.174Z,1020.34
2022-08-11T06:36:11.118Z,1020.35
2022-08-11T06:37:11.119Z,1020.37
2022-08-11T06:38:11.104Z,1020.39
2022-08-11T06:39:11.159Z,1020.40
2022-08-11T06:40:11.107Z,1020.41
2022-08-11T06:41:11.065Z,1020.40
2022-08-11T06:42:11.053Z,1020.38
2022-08-11T06:43:11.049Z,1020.37
2022-08-11T06:44:11.066Z,1020.36
2022-08-11T06:45:11.036Z,1020.35
2022-08-11T06:46:11.008Z,1020.35
2022-08-11T06:47:11.017Z,1020.34
2022-08-11T06:48:11.021Z,1020.35
2022-08-11T06:49:10.981Z,1020.34
2022-08-11T06:50:11.020Z,1020.33
2022-08-11T06:51:10.983Z,1020.33
2022-08-11T06:52:34.137Z,1020.32
2022-08-11T06:53:10.962Z,1020.30
2022-08-11T06:54:10.945Z,1020.32
2022-08-11T06:55:56.618Z,1020.32
2022-08-11T06:56:10.908Z,1020.33
2022-08-11T06:57:29.738Z,1020.34
2022-08-11T06:58:11.042Z,1020.34
2022-08-11T06:59:10.910Z,1020.33
2022-08-11T07:00:10.878Z,1020.33
2022-08-11T07:01:10.926Z,1020.32
2022-08-11T07:02:10.884Z,1020.30
2022-08-11T07:03:11.077Z,1020.29
2022-08-11T07:04:10.828Z,1020.29
2022-08-11T07:05:10.855Z,1020.27
2022-08-11T07:06:10.902Z,1020.26
2022-08-11T07:07:10.809Z,1020.27
2022-08-11T07:08:34.879Z,1020.27
2022-08-11T07:09:10.840Z,1020.26
2022-08-11T07:10:10.819Z,1020.26
2022-08-11T07:11:10.870Z,1020.25
2022-08-11T07:12:10.756Z,1020.24
2022-08-11T07:13:10.995Z,1020.25
2022-08-11T07:14:10.767Z,1020.25
2022-08-11T07:15:10.717Z,1020.24
2022-08-11T07:16:13.872Z,1020.23
2022-08-11T07:17:10.696Z,1020.23
2022-08-11T07:18:10.742Z,1020.21
2022-08-11T07:19:10.732Z,1020.20
2022-08-11T07:20:10.691Z,1020.17
2022-08-11T07:22:00.297Z,1020.17
2022-08-11T07:22:10.652Z,1020.15
2022-08-11T07:23:10.677Z,1020.14
2022-08-11T07:24:10.754Z,1020.14
2022-08-11T07:25:10.630Z,1020.13
2022-08-11T07:26:10.789Z,1020.13
2022-08-11T07:27:10.601Z,1020.13
2022-08-11T07:28:10.586Z,1020.11
2022-08-11T07:29:10.809Z,1020.10
2022-08-11T07:30:10.590Z,1020.10
2022-08-11T07:31:10.550Z,1020.09
2022-08-11T07:32:10.531Z,1020.09
2022-08-11T07:33:10.523Z,1020.08
2022-08-11T07:34:15.867Z,1020.08
2022-08-11T07:35:10.529Z,1020.07
2022-08-11T07:36:10.505Z,1020.07
2022-08-11T07:37:10.487Z,1020.07
2022-08-11T07:38:10.469Z,1020.06
2022-08-11T07:39:10.512Z,1020.08
2022-08-11T07:40:10.500Z,1020.08
2022-08-11T07:41:10.451Z,1020.08
2022-08-11T07:42:10.434Z,1020.08
2022-08-11T07:43:10.437Z,1020.08
2022-08-11T07:44:10.412Z,1020.05
2022-08-11T07:45:10.458Z,1019.98
2022-08-11T07:46:10.423Z,1019.95
2022-08-11T07:47:10.382Z,1019.91
2022-08-11T07:48:10.367Z,1019.88
2022-08-11T07:49:10.376Z,1019.87
2022-08-11T07:50:10.362Z,1019.85
2022-08-11T07:51:10.353Z,1019.83
2022-08-11T07:52:10.336Z,1019.83
2022-08-11T07:53:10.333Z,1019.82
2022-08-11T07:54:17.062Z,1019.81
2022-08-11T07:55:10.479Z,1019.81
2022-08-11T07:56:10.292Z,1019.81
2022-08-11T07:57:46.063Z,1019.80
2022-08-11T07:58:20.198Z,1019.80
2022-08-11T07:59:10.297Z,1019.81
2022-08-11T08:00:10.360Z,1019.81
2022-08-11T08:01:21.585Z,1019.81
2022-08-11T08:02:10.306Z,1019.80
2022-08-11T08:03:10.219Z,1019.80
2022-08-11T08:04:10.213Z,1019.80
2022-08-11T08:05:10.220Z,1019.81
2022-08-11T08:06:28.489Z,1019.82
2022-08-11T08:07:10.188Z,1019.82
2022-08-11T08:08:10.184Z,1019.82
2022-08-11T08:09:10.180Z,1019.83
2022-08-11T08:10:14.081Z,1019.82
2022-08-11T08:11:10.143Z,1019.82
2022-08-11T08:12:10.142Z,1019.81
2022-08-11T08:13:10.142Z,1019.82
2022-08-11T08:14:10.120Z,1019.82
2022-08-11T08:15:10.128Z,1019.81
2022-08-11T08:16:10.099Z,1019.82
2022-08-11T08:17:10.081Z,1019.82
2022-08-11T08:18:25.852Z,1019.82
2022-08-11T08:19:10.091Z,1019.81
2022-08-11T08:20:10.069Z,1019.80
2022-08-11T08:21:10.045Z,1019.80
2022-08-11T08:22:34.664Z,1019.81
2022-08-11T08:23:10.057Z,1019.81
2022-08-11T08:24:10.025Z,1019.82
2022-08-11T08:25:10.035Z,1019.86
2022-08-11T08:26:13.682Z,1019.90
2022-08-11T08:27:09.991Z,1019.92
2022-08-11T08:28:09.990Z,1019.92
2022-08-11T08:29:09.997Z,1019.90
2022-08-11T08:30:09.983Z,1019.85
2022-08-11T08:31:09.987Z,1019.85
2022-08-11T08:32:09.958Z,1019.86
2022-08-11T08:33:09.939Z,1019.90
2022-08-11T08:34:09.944Z,1019.93
2022-08-11T08:35:09.924Z,1019.94
2022-08-11T08:36:09.924Z,1019.95
2022-08-11T08:37:15.758Z,1019.96
2022-08-11T08:38:09.912Z,1019.95
2022-08-11T08:39:09.920Z,1019.95
2022-08-11T08:40:09.910Z,1019.94
2022-08-11T08:41:09.867Z,1019.96
2022-08-11T08:42:09.849Z,1019.94
2022-08-11T08:43:09.836Z,1019.94
2022-08-11T08:44:36.749Z,1019.95
2022-08-11T08:45:09.840Z,1019.94
2022-08-11T08:46:09.822Z,1019.95
2022-08-11T08:47:09.797Z,1019.95
2022-08-11T08:48:09.789Z,1019.96
2022-08-11T08:49:09.777Z,1019.98
2022-08-11T08:50:09.789Z,1019.98
2022-08-11T08:51:11.030Z,1019.97
2022-08-11T08:52:27.773Z,1019.95
2022-08-11T08:53:09.739Z,1019.94
2022-08-11T08:54:09.735Z,1019.94
2022-08-11T08:55:09.737Z,1019.95
2022-08-11T08:56:09.712Z,1019.94
2022-08-11T08:57:09.715Z,1019.93
2022-08-11T08:58:09.705Z,1019.94
2022-08-11T08:59:09.676Z,1019.94
2022-08-11T09:00:12.995Z,1019.94
2022-08-11T09:01:09.721Z,1019.92
2022-08-11T09:02:09.652Z,1019.91
2022-08-11T09:03:38.069Z,1019.89
2022-08-11T09:04:12.249Z,1019.85
2022-08-11T09:05:09.631Z,1019.84
2022-08-11T09:06:09.610Z,1019.83
2022-08-11T09:07:09.605Z,1019.83
2022-08-11T09:08:09.595Z,1019.82
2022-08-11T09:09:09.574Z,1019.82
2022-08-11T09:10:09.600Z,1019.80
2022-08-11T09:11:13.598Z,1019.78
2022-08-11T09:12:09.557Z,1019.79
2022-08-11T09:13:09.581Z,1019.79
2022-08-11T09:14:14.874Z,1019.80
2022-08-11T09:15:09.544Z,1019.80
2022-08-11T09:16:09.515Z,1019.79
2022-08-11T09:17:09.511Z,1019.80
2022-08-11T09:18:09.512Z,1019.80
2022-08-11T09:19:09.484Z,1019.82
2022-08-11T09:20:09.485Z,1019.81
2022-08-11T09:21:09.453Z,1019.79
2022-08-11T09:22:09.460Z,1019.80
2022-08-11T09:24:16.870Z,1019.77
2022-08-11T09:25:09.446Z,1019.76
2022-08-11T09:26:09.447Z,1019.77
2022-08-11T09:27:09.397Z,1019.73
2022-08-11T09:28:09.410Z,1019.73
2022-08-11T09:29:09.377Z,1019.73
2022-08-11T09:30:09.418Z,1019.71
2022-08-11T09:31:09.369Z,1019.71
2022-08-11T09:32:09.361Z,1019.72
2022-08-11T09:33:09.334Z,1019.71
2022-08-11T09:34:09.351Z,1019.75
2022-08-11T09:35:09.327Z,1019.72
2022-08-11T09:36:09.366Z,1019.73
2022-08-11T09:37:09.305Z,1019.72
2022-08-11T09:38:09.292Z,1019.71
2022-08-11T09:39:09.350Z,1019.71
2022-08-11T09:40:09.326Z,1019.71
2022-08-11T09:41:09.261Z,1019.70
2022-08-11T09:42:11.166Z,1019.70
2022-08-11T09:43:09.249Z,1019.67
2022-08-11T09:44:09.246Z,1019.65
2022-08-11T09:45:09.216Z,1019.62
2022-08-11T09:46:09.339Z,1019.56
2022-08-11T09:47:09.194Z,1019.52
2022-08-11T09:48:09.215Z,1019.50
2022-08-11T09:49:09.194Z,1019.51
2022-08-11T09:50:09.197Z,1019.52
2022-08-11T09:51:09.164Z,1019.51
2022-08-11T09:52:09.150Z,1019.49
2022-08-11T09:53:36.056Z,1019.53
2022-08-11T09:54:09.154Z,1019.53
2022-08-11T09:55:09.116Z,1019.54
2022-08-11T09:56:09.132Z,1019.56
2022-08-11T09:57:09.103Z,1019.53
2022-08-11T09:58:09.089Z,1019.54
2022-08-11T09:59:09.408Z,1019.52
2022-08-11T10:00:09.588Z,1019.49
2022-08-11T10:01:09.111Z,1019.49
2022-08-11T10:02:09.045Z,1019.46
2022-08-11T10:03:09.042Z,1019.45
2022-08-11T10:04:09.051Z,1019.46
2022-08-11T10:05:09.015Z,1019.45
2022-08-11T10:06:09.049Z,1019.45
2022-08-11T10:07:08.996Z,1019.44
2022-08-11T10:08:09.003Z,1019.42
2022-08-11T10:09:09.004Z,1019.40
2022-08-11T10:10:08.970Z,1019.38
2022-08-11T10:11:08.951Z,1019.35
2022-08-11T10:12:08.953Z,1019.35
2022-08-11T10:14:31.947Z,1019.35
2022-08-11T10:14:44.019Z,1019.35
2022-08-11T10:15:08.928Z,1019.35
2022-08-11T10:16:15.316Z,1019.34
2022-08-11T10:17:08.902Z,1019.34
2022-08-11T10:18:08.905Z,1019.33
2022-08-11T10:19:08.892Z,1019.34
2022-08-11T10:20:08.885Z,1019.31
2022-08-11T10:21:08.852Z,1019.31
2022-08-11T10:22:08.864Z,1019.30
2022-08-11T10:23:08.854Z,1019.31
2022-08-11T10:24:08.843Z,1019.31
2022-08-11T10:25:08.827Z,1019.32
2022-08-11T10:26:08.824Z,1019.33
2022-08-11T10:27:08.809Z,1019.32
2022-08-11T10:28:28.662Z,1019.31
2022-08-11T10:29:13.572Z,1019.29
2022-08-11T10:30:08.781Z,1019.26
2022-08-11T10:31:12.504Z,1019.25
2022-08-11T10:32:08.753Z,1019.22
2022-08-11T10:33:08.894Z,1019.23
2022-08-11T10:34:08.771Z,1019.23
2022-08-11T10:35:08.718Z,1019.22
2022-08-11T10:36:16.140Z,1019.19
2022-08-11T10:37:08.695Z,1019.17
2022-08-11T10:38:10.071Z,1019.17
2022-08-11T10:39:08.762Z,1019.15
2022-08-11T10:40:08.673Z,1019.13
2022-08-11T10:41:08.649Z,1019.14
2022-08-11T10:42:12.397Z,1019.12
2022-08-11T10:43:08.706Z,1019.06
2022-08-11T10:44:08.642Z,1019.08
2022-08-11T10:45:08.618Z,1019.10
2022-08-11T10:46:08.653Z,1019.09
2022-08-11T10:47:08.642Z,1019.09
2022-08-11T10:48:13.446Z,1019.07
2022-08-11T10:49:09.003Z,1019.07
2022-08-11T10:50:08.609Z,1019.07
2022-08-11T10:51:08.553Z,1019.06
2022-08-11T10:52:08.589Z,1019.05
2022-08-11T10:53:08.544Z,1019.05
2022-08-11T10:54:11.599Z,1019.03
2022-08-11T10:55:08.527Z,1019.01
2022-08-11T10:56:08.511Z,1019.00
2022-08-11T10:57:08.543Z,1018.98
2022-08-11T10:58:08.489Z,1018.96
2022-08-11T10:59:08.503Z,1018.91
2022-08-11T11:00:08.471Z,1018.89
2022-08-11T11:01:08.496Z,1018.89
2022-08-11T11:02:08.470Z,1018.90
2022-08-11T11:03:23.082Z,1018.89
2022-08-11T11:04:08.466Z,1018.86
2022-08-11T11:05:08.418Z,1018.86
2022-08-11T11:06:27.464Z,1018.86
2022-08-11T11:07:08.414Z,1018.84
2022-08-11T11:08:08.412Z,1018.82
2022-08-11T11:09:08.397Z,1018.87
2022-08-11T11:10:08.397Z,1018.88
2022-08-11T11:11:08.402Z,1018.87
2022-08-11T11:12:08.347Z,1018.89
2022-08-11T11:13:08.329Z,1018.89
2022-08-11T11:14:08.339Z,1018.89
2022-08-11T11:15:08.368Z,1018.90
2022-08-11T11:16:08.312Z,1018.90
2022-08-11T11:17:08.292Z,1018.87
2022-08-11T11:19:18.630Z,1018.87
2022-08-11T11:20:34.696Z,1018.85
2022-08-11T11:21:19.599Z,1018.84
2022-08-11T11:22:19.613Z,1018.81
2022-08-11T11:23:19.608Z,1018.82
2022-08-11T11:24:19.576Z,1018.82
2022-08-11T11:25:19.573Z,1018.83
2022-08-11T11:26:27.012Z,1018.85
2022-08-11T11:27:19.538Z,1018.85
2022-08-11T11:28:19.572Z,1018.80
2022-08-11T11:29:19.518Z,1018.79
2022-08-11T11:30:19.504Z,1018.78
2022-08-11T11:31:19.498Z,1018.78
2022-08-11T11:32:19.508Z,1018.75
2022-08-11T11:33:19.501Z,1018.73
2022-08-11T11:34:20.100Z,1018.74
2022-08-11T11:35:19.465Z,1018.73
2022-08-11T11:36:19.434Z,1018.71
2022-08-11T11:37:19.427Z,1018.69
2022-08-11T11:38:19.438Z,1018.67
2022-08-11T11:39:19.463Z,1018.65
2022-08-11T11:40:19.392Z,1018.64
2022-08-11T11:41:19.402Z,1018.65
2022-08-11T11:42:19.384Z,1018.65
2022-08-11T11:43:19.398Z,1018.64
2022-08-11T11:44:19.353Z,1018.64
2022-08-11T11:45:19.359Z,1018.63
2022-08-11T11:46:19.332Z,1018.62
2022-08-11T11:47:21.717Z,1018.62
2022-08-11T11:48:19.330Z,1018.62
2022-08-11T11:50:19.289Z,1018.55
2022-08-11T11:51:19.288Z,1018.52
2022-08-11T11:52:19.276Z,1018.56
2022-08-11T11:53:19.279Z,1018.55
2022-08-11T11:54:19.251Z,1018.55
2022-08-11T11:55:19.307Z,1018.55
2022-08-11T11:56:19.240Z,1018.55
2022-08-11T11:57:19.232Z,1018.55
2022-08-11T11:58:19.239Z,1018.53
2022-08-11T11:59:19.208Z,1018.52
2022-08-11T12:00:19.191Z,1018.50
2022-08-11T12:01:19.187Z,1018.50
2022-08-11T12:02:19.186Z,1018.51
2022-08-11T12:03:19.212Z,1018.52
2022-08-11T12:04:19.164Z,1018.52
2022-08-11T12:05:19.155Z,1018.51
2022-08-11T12:06:19.129Z,1018.49
2022-08-11T12:07:19.126Z,1018.50
2022-08-11T12:08:19.176Z,1018.45